Terminal Aerodrome Forecast
Issued by NWS

Current Version | Previous Version | Text Only | Print | Product List | Glossary On
Versions: 1 2 3 4 5 6 7 8 9 10 11 12 13 14 15 16 17 18
000
FTUS42 KTAE 252300 CCA
TAFABY
TAF COR
KABY 252346Z 2600/2624 21010G19KT P6SM FEW250
     FM260800 25012G20KT P6SM SCT050 SCT100
     FM261300 29010G17KT P6SM SCT025 BKN050
     FM261900 29016G26KT P6SM OVC050
     FM262300 29010G16KT P6SM SCT250=

USA.gov is the U.S. government's official web portal to all federal, state and local government web resources and services.